Time;durP1;ratioP1;P1;durP2;ratioP2;P2;SDS_P1;SDS_P2;PMS_P1;PMS_P2;Temp;Humidity;BMP_temperature;BMP_pressure;BME280_temperature;BME280_humidity;BME280_pressure;Samples;Min_cycle;Max_cycle;Signal;HPM_P1;HPM_P2
2022/12/13 00:01:40;;;;;;;18.80;18.00;;;0.30;94.50;;;;;;5027701;28;20019;-76
2022/12/13 00:04:07;;;;;;;16.83;16.13;;;0.20;94.40;;;;;;5026167;28;20226;-76
2022/12/13 00:06:33;;;;;;;;;;;0.20;94.50;;;;;;5027936;28;20053;-76
2022/12/13 00:08:59;;;;;;;17.17;16.48;;;0.20;94.50;;;;;;5009505;28;19983;-76
2022/12/13 00:11:25;;;;;;;16.00;15.30;;;0.30;94.50;;;;;;5010118;28;20037;-76
2022/12/13 00:13:51;;;;;;;16.63;15.93;;;0.30;94.50;;;;;;5009623;28;20040;-76
2022/12/13 00:16:21;;;;;;;16.42;15.73;;;0.30;94.50;;;;;;5027537;28;20104;-76
2022/12/13 00:18:54;;;;;;;16.88;16.17;;;0.30;94.50;;;;;;5027638;28;20053;-76
2022/12/13 00:21:21;;;;;;;19.90;19.10;;;0.40;94.70;;;;;;5027417;28;20461;-76
2022/12/13 00:23:47;;;;;;;19.25;18.45;;;0.40;94.50;;;;;;5026061;28;20033;-76
2022/12/13 00:26:19;;;;;;;21.48;20.58;;;0.40;94.50;;;;;;5026346;28;20482;-76
2022/12/13 00:28:48;;;;;;;20.42;19.63;;;0.40;94.40;;;;;;5026012;28;20045;-76
2022/12/13 00:31:14;;;;;;;17.35;16.65;;;0.40;94.40;;;;;;5026252;28;20033;-77
2022/12/13 00:33:39;;;;;;;;;;;0.50;94.40;;;;;;5026644;28;20021;-76
2022/12/13 00:36:06;;;;;;;19.20;18.40;;;0.50;94.40;;;;;;5027387;28;20391;-76
2022/12/13 00:38:34;;;;;;;19.17;18.38;;;0.50;94.40;;;;;;5027367;28;20080;-76
2022/12/13 00:41:08;;;;;;;18.55;17.75;;;0.50;94.30;;;;;;5026008;28;20032;-76
2022/12/13 00:43:34;;;;;;;16.70;16.00;;;0.60;94.40;;;;;;5010816;28;20037;-76
2022/12/13 00:45:59;;;;;;;16.38;15.68;;;0.60;94.30;;;;;;5026054;28;20086;-76
2022/12/13 00:48:25;;;;;;;15.95;15.25;;;0.60;94.40;;;;;;5026012;28;20044;-76
2022/12/13 00:50:51;;;;;;;18.00;17.30;;;0.50;94.30;;;;;;5025832;28;20424;-76
2022/12/13 00:53:16;;;;;;;16.20;15.50;;;0.50;94.40;;;;;;5025962;28;20061;-76
2022/12/13 00:55:42;;;;;;;18.30;17.55;;;0.40;94.50;;;;;;5009361;28;20049;-76
2022/12/13 00:58:08;;;;;;;15.50;14.82;;;0.40;94.50;;;;;;5027347;28;20064;-75
2022/12/13 01:00:33;;;;;;;17.38;16.67;;;0.30;94.50;;;;;;5025934;28;20037;-76
2022/12/13 01:03:18;;;;;;;17.30;16.60;;;0.30;94.40;;;;;;5009822;28;20044;-76
2022/12/13 01:05:45;;;;;;;20.65;19.85;;;0.20;94.50;;;;;;5029637;28;20036;-76
2022/12/13 01:08:11;;;;;;;16.60;15.90;;;0.10;94.20;;;;;;5029231;28;20037;-76
2022/12/13 01:10:40;;;;;;;16.50;15.80;;;-0.10;94.30;;;;;;5012994;28;20030;-76
2022/12/13 01:13:06;;;;;;;13.20;12.60;;;-0.20;94.40;;;;;;5029113;28;20029;-76
2022/12/13 01:15:32;;;;;;;15.48;14.80;;;-0.30;94.60;;;;;;5029322;28;20103;-76
2022/12/13 01:17:57;;;;;;;13.05;12.45;;;-0.30;94.60;;;;;;5012911;28;20047;-76
2022/12/13 01:20:23;;;;;;;14.13;13.52;;;-0.40;94.70;;;;;;5029163;28;20030;-77
2022/12/13 01:22:49;;;;;;;13.57;12.98;;;-0.30;94.70;;;;;;5029057;28;20061;-76
2022/12/13 01:25:14;;;;;;;13.93;13.32;;;-0.30;94.70;;;;;;5012670;28;20533;-76
2022/12/13 01:27:40;;;;;;;12.57;11.98;;;-0.30;94.60;;;;;;5012569;28;20044;-76
2022/12/13 01:30:06;;;;;;;12.45;11.85;;;-0.30;94.60;;;;;;5012728;28;20034;-76
2022/12/13 01:32:32;;;;;;;12.43;11.85;;;-0.40;94.50;;;;;;5012484;28;20028;-76
2022/12/13 01:34:57;;;;;;;15.70;15.00;;;-0.50;94.60;;;;;;5012497;28;20461;-76
2022/12/13 01:37:23;;;;;;;14.10;13.50;;;-0.50;94.60;;;;;;5012445;28;20498;-76
2022/12/13 01:39:49;;;;;;;15.13;14.52;;;-0.40;94.50;;;;;;5012095;28;20096;-77
2022/12/13 01:42:14;;;;;;;15.48;14.77;;;-0.50;94.40;;;;;;5028517;28;20112;-76
2022/12/13 01:44:55;;;;;;;13.95;13.35;;;-0.50;94.50;;;;;;5011982;28;20043;-77
2022/12/13 01:47:30;;;;;;;16.45;15.75;;;-0.50;94.50;;;;;;5030071;28;20041;-76
2022/12/13 01:50:00;;;;;;;12.88;12.27;;;-0.50;94.40;;;;;;5029667;28;20026;-76
2022/12/13 01:52:29;;;;;;;13.10;12.50;;;-0.50;94.40;;;;;;5028347;28;20587;-76
2022/12/13 01:54:56;;;;;;;16.17;15.48;;;-0.50;94.40;;;;;;5028033;28;20026;-77
2022/12/13 01:57:23;;;;;;;15.13;14.52;;;-0.50;94.40;;;;;;5029575;28;20113;-77
2022/12/13 01:59:50;;;;;;;13.40;12.80;;;-0.50;94.50;;;;;;5028257;28;20037;-76
2022/12/13 02:02:16;;;;;;;13.65;13.05;;;-0.50;94.50;;;;;;5029275;28;20025;-77
2022/12/13 02:04:52;;;;;;;14.80;14.20;;;-0.60;94.50;;;;;;5028026;28;20025;-77
2022/12/13 02:07:24;;;;;;;17.70;17.00;;;-0.60;94.40;;;;;;5029478;28;20061;-76
2022/12/13 02:09:56;;;;;;;19.13;18.33;;;-0.60;94.40;;;;;;5029175;28;20017;-76
2022/12/13 02:12:23;;;;;;;15.15;14.52;;;-0.60;94.40;;;;;;5027847;28;20541;-76
2022/12/13 02:14:49;;;;;;;;;;;-0.60;94.30;;;;;;5027886;28;20371;-76
2022/12/13 02:17:24;;;;;;;14.60;14.00;;;-0.60;94.30;;;;;;5029172;28;19982;-77
2022/12/13 02:20:01;;;;;;;13.10;12.50;;;-0.60;94.30;;;;;;5027640;28;20034;-77
2022/12/13 02:23:00;;;;;;;14.40;13.80;;;-0.60;94.50;;;;;;5027531;28;20553;-77
2022/12/13 02:25:35;;;;;;;13.45;12.85;;;-0.40;94.70;;;;;;5028989;28;20041;-76
2022/12/13 02:28:29;;;;;;;11.65;11.15;;;-0.30;94.80;;;;;;5027662;28;20103;-76
2022/12/13 02:31:09;;;;;;;10.25;9.75;;;-0.10;94.80;;;;;;5027495;28;20055;-76
2022/12/13 02:34:05;;;;;;;9.90;9.40;;;0.10;94.70;;;;;;5028688;28;20029;-76
2022/12/13 02:36:56;;;;;;;9.63;9.13;;;0.20;94.70;;;;;;5027389;28;20049;-76
2022/12/13 02:39:48;;;;;;;7.97;7.57;;;0.40;94.70;;;;;;5027416;28;20503;-76
2022/12/13 02:42:21;;;;;;;7.88;7.47;;;0.50;94.70;;;;;;5020197;28;20112;-76
2022/12/13 02:45:04;;;;;;;7.10;6.70;;;0.60;94.60;;;;;;5028557;28;20026;-76
2022/12/13 02:47:32;;;;;;;7.90;7.50;;;0.60;94.60;;;;;;5027726;28;20233;-76
2022/12/13 02:50:01;;;;;;;7.95;7.55;;;0.60;94.70;;;;;;5028494;28;20488;-76
2022/12/13 02:52:30;;;;;;;8.88;8.48;;;0.70;94.70;;;;;;5028319;28;20025;-76
2022/12/13 02:54:56;;;;;;;8.75;8.35;;;0.80;94.60;;;;;;5027192;28;20481;-76
2022/12/13 02:57:37;;;;;;;7.47;7.07;;;0.80;94.50;;;;;;5027078;28;20026;-76
2022/12/13 03:00:08;;;;;;;9.70;9.20;;;0.80;94.40;;;;;;5028628;28;20041;-76
2022/12/13 03:03:08;;;;;;;9.20;8.80;;;0.80;94.40;;;;;;5026945;28;20021;-77
2022/12/13 03:08:27;;;;;;;;;;;0.80;94.40;;;;;;5028730;28;20500;-77
2022/12/13 03:11:07;;;;;;;10.07;9.57;;;0.80;94.40;;;;;;5028216;28;19905;-77
2022/12/13 03:13:36;;;;;;;7.30;6.90;;;0.80;94.30;;;;;;5027971;28;20037;-76
2022/12/13 03:16:12;;;;;;;8.85;8.45;;;0.80;94.40;;;;;;5026771;28;20486;-76
2022/12/13 03:18:38;;;;;;;8.52;8.13;;;0.70;94.40;;;;;;5027917;28;20018;-77
2022/12/13 03:21:10;;;;;;;8.68;8.27;;;0.80;94.50;;;;;;5010089;28;20458;-76
2022/12/13 03:23:36;;;;;;;8.02;7.63;;;0.80;94.70;;;;;;5027818;28;20062;-76
2022/12/13 03:26:11;;;;;;;8.43;8.02;;;0.80;94.60;;;;;;5026494;28;20033;-76
2022/12/13 03:28:38;;;;;;;10.63;10.13;;;0.80;94.60;;;;;;5027308;28;20029;-77
2022/12/13 03:31:04;;;;;;;10.18;9.68;;;0.70;94.60;;;;;;5027789;28;20496;-76
2022/12/13 03:33:31;;;;;;;8.57;8.18;;;0.70;94.70;;;;;;5027658;28;20117;-77
2022/12/13 03:35:57;;;;;;;10.52;10.02;;;0.60;94.70;;;;;;5026515;28;20034;-76
2022/12/13 03:38:24;;;;;;;10.32;9.82;;;0.60;94.90;;;;;;5027658;28;20030;-76
2022/12/13 03:40:57;;;;;;;10.02;9.52;;;0.60;94.90;;;;;;5010000;28;20317;-76
2022/12/13 03:43:23;;;;;;;10.95;10.45;;;0.60;95.00;;;;;;5027712;28;20022;-76
2022/12/13 03:45:50;;;;;;;9.13;8.73;;;0.60;94.90;;;;;;5026348;28;20445;-76
2022/12/13 03:48:16;;;;;;;10.52;10.02;;;0.60;94.90;;;;;;5026201;28;20417;-77
2022/12/13 03:50:42;;;;;;;8.68;8.27;;;0.60;95.00;;;;;;5027531;28;20033;-76
2022/12/13 03:53:08;;;;;;;9.90;9.40;;;0.60;95.00;;;;;;5026084;28;20140;-76
2022/12/13 03:55:33;;;;;;;12.77;12.18;;;0.70;94.90;;;;;;5026461;28;20454;-76
2022/12/13 03:57:59;;;;;;;12.02;11.52;;;0.70;95.00;;;;;;5009894;28;20403;-76
2022/12/13 04:00:25;;;;;;;12.57;11.98;;;0.60;94.70;;;;;;5026229;28;20107;-76
2022/12/13 04:02:50;;;;;;;10.18;9.68;;;0.60;94.70;;;;;;5027328;28;20037;-76
2022/12/13 04:05:16;;;;;;;13.75;13.15;;;0.50;94.70;;;;;;5027311;28;20032;-77
2022/12/13 04:07:43;;;;;;;12.70;12.10;;;0.40;94.70;;;;;;5026058;28;20037;-76
2022/12/13 04:10:09;;;;;;;12.55;11.95;;;0.40;94.80;;;;;;5027428;28;20037;-77
2022/12/13 04:15:19;;;;;;;13.60;13.00;;;0.30;94.70;;;;;;5026569;28;20485;-76
2022/12/13 04:17:45;;;;;;;13.38;12.77;;;0.30;94.70;;;;;;5025822;28;20037;-76
2022/12/13 04:20:10;;;;;;;13.15;12.55;;;0.20;94.70;;;;;;5027235;28;20041;-76
2022/12/13 04:22:36;;;;;;;15.32;14.70;;;0.20;94.80;;;;;;5026003;28;20037;-76
2022/12/13 04:25:03;;;;;;;16.15;15.45;;;0.20;94.80;;;;;;5027427;28;20044;-76
2022/12/13 04:27:29;;;;;;;11.68;11.18;;;0.20;94.80;;;;;;5009545;28;20030;-77
2022/12/13 04:29:54;;;;;;;15.05;14.45;;;0.20;94.80;;;;;;5027170;28;20029;-77
2022/12/13 04:32:20;;;;;;;14.85;14.25;;;0.20;94.90;;;;;;5025782;28;20397;-76
2022/12/13 04:34:46;;;;;;;14.10;13.50;;;0.30;94.90;;;;;;5027246;28;20087;-77
2022/12/13 04:37:12;;;;;;;11.00;10.50;;;0.30;94.80;;;;;;5027240;28;20124;-76
2022/12/13 04:39:37;;;;;;;11.95;11.45;;;0.30;94.70;;;;;;5012249;28;20044;-77
2022/12/13 04:42:03;;;;;;;13.57;12.98;;;0.30;94.70;;;;;;5012993;28;20056;-76
2022/12/13 04:44:29;;;;;;;15.30;14.68;;;0.30;94.70;;;;;;5029644;28;20129;-76
2022/12/13 04:46:55;;;;;;;13.98;13.38;;;0.30;94.70;;;;;;5030828;28;20029;-76
2022/12/13 04:49:21;;;;;;;17.00;16.30;;;0.30;94.70;;;;;;5030793;28;20035;-76
2022/12/13 04:51:47;;;;;;;16.45;15.75;;;0.30;94.70;;;;;;5030819;28;20033;-76
2022/12/13 04:54:12;;;;;;;16.10;15.40;;;0.30;94.70;;;;;;5030829;28;20025;-76
2022/12/13 04:56:38;;;;;;;12.57;11.98;;;0.20;94.70;;;;;;5030634;28;20037;-77
2022/12/13 04:59:04;;;;;;;15.40;14.70;;;0.20;94.80;;;;;;5030564;28;20423;-77
2022/12/13 05:01:30;;;;;;;13.38;12.77;;;0.20;94.70;;;;;;5012752;28;20537;-76
2022/12/13 05:03:56;;;;;;;14.75;14.15;;;0.20;94.80;;;;;;5029317;28;20091;-77
2022/12/13 05:06:21;;;;;;;14.05;13.45;;;0.20;94.80;;;;;;5030506;28;20034;-77
2022/12/13 05:08:47;;;;;;;12.75;12.15;;;0.20;94.90;;;;;;5030441;28;20052;-76
2022/12/13 05:11:13;;;;;;;11.25;10.75;;;0.20;94.90;;;;;;5012805;28;20048;-76
2022/12/13 05:13:39;;;;;;;11.77;11.27;;;0.30;95.00;;;;;;5030287;28;20044;-76
2022/12/13 05:16:06;;;;;;;12.00;11.50;;;0.50;95.00;;;;;;5028920;28;20034;-77
2022/12/13 05:18:34;;;;;;;13.45;12.85;;;0.60;95.00;;;;;;5030042;28;20033;-77
2022/12/13 05:21:05;;;;;;;9.65;9.15;;;0.70;94.90;;;;;;5029945;28;20088;-77
2022/12/13 05:23:31;;;;;;;10.90;10.40;;;0.80;94.90;;;;;;5028636;28;20021;-76
2022/12/13 05:25:57;;;;;;;10.93;10.43;;;0.90;94.90;;;;;;5030044;28;20030;-77
2022/12/13 05:28:26;;;;;;;10.50;10.00;;;0.90;94.90;;;;;;5028788;28;20045;-76
2022/12/13 05:30:53;;;;;;;10.32;9.82;;;0.90;94.90;;;;;;5029978;28;20029;-76
2022/12/13 05:33:19;;;;;;;8.13;7.72;;;0.90;94.90;;;;;;5028656;28;20502;-76
2022/12/13 05:35:45;;;;;;;10.65;10.15;;;1.00;95.00;;;;;;5029865;28;20059;-76
2022/12/13 05:38:11;;;;;;;11.50;11.00;;;1.10;94.90;;;;;;5028583;28;20453;-76
2022/12/13 05:40:36;;;;;;;9.60;9.10;;;1.20;94.90;;;;;;5029849;28;20109;-76
2022/12/13 05:43:02;;;;;;;11.88;11.38;;;1.20;94.90;;;;;;5012167;28;20025;-77
2022/12/13 05:45:32;;;;;;;10.80;10.30;;;1.20;94.80;;;;;;5029694;28;20083;-77
2022/12/13 05:47:58;;;;;;;8.85;8.45;;;1.30;94.70;;;;;;5029671;28;20091;-76
2022/12/13 05:50:24;;;;;;;9.75;9.25;;;1.30;94.70;;;;;;5027369;28;20112;-76
2022/12/13 05:52:50;;;;;;;9.18;8.77;;;1.30;94.70;;;;;;5029669;28;20116;-77
2022/12/13 05:55:16;;;;;;;8.40;8.00;;;1.40;94.70;;;;;;5011866;28;20037;-76
2022/12/13 05:57:41;;;;;;;8.77;8.38;;;1.40;94.70;;;;;;5029447;28;20043;-76
2022/12/13 06:00:09;;;;;;;7.30;6.90;;;1.40;94.70;;;;;;5011681;28;20385;-77
2022/12/13 06:02:42;;;;;;;9.30;8.85;;;1.40;94.70;;;;;;5029236;28;20498;-76
2022/12/13 06:05:09;;;;;;;8.65;8.25;;;1.40;94.70;;;;;;5027903;28;20018;-77
2022/12/13 06:07:35;;;;;;;10.73;10.23;;;1.40;94.70;;;;;;5029283;28;20508;-77
2022/12/13 06:10:01;;;;;;;11.50;11.00;;;1.40;94.80;;;;;;5029324;28;20029;-77
2022/12/13 06:12:27;;;;;;;10.10;9.60;;;1.40;94.70;;;;;;5029011;28;20034;-77
2022/12/13 06:14:53;;;;;;;9.90;9.40;;;1.40;94.60;;;;;;5011271;28;20033;-76
2022/12/13 06:17:20;;;;;;;12.38;11.82;;;1.50;94.70;;;;;;5027711;28;20037;-76
2022/12/13 06:19:46;;;;;;;9.48;8.98;;;1.40;94.60;;;;;;5027592;28;20081;-76
2022/12/13 06:22:12;;;;;;;12.52;11.93;;;1.40;94.60;;;;;;5027584;28;20132;-76
2022/12/13 06:24:37;;;;;;;11.07;10.57;;;1.50;94.50;;;;;;4995289;28;20084;-76
2022/12/13 06:27:04;;;;;;;11.38;10.88;;;1.40;94.50;;;;;;5029088;28;20109;-76
2022/12/13 06:29:30;;;;;;;12.77;12.18;;;1.40;94.50;;;;;;5027613;28;20263;-76
2022/12/13 06:32:00;;;;;;;11.45;10.95;;;1.40;94.50;;;;;;5028908;28;20025;-76
2022/12/13 06:34:26;;;;;;;11.15;10.65;;;1.40;94.50;;;;;;5029000;28;20347;-76
2022/12/13 06:36:52;;;;;;;10.80;10.30;;;1.40;94.50;;;;;;4994901;28;20029;-76
2022/12/13 06:39:17;;;;;;;9.63;9.13;;;1.40;94.60;;;;;;5027677;28;20403;-76
2022/12/13 06:41:44;;;;;;;11.30;10.80;;;1.40;94.60;;;;;;5027356;28;20486;-76
2022/12/13 06:44:10;;;;;;;10.45;9.95;;;1.50;94.70;;;;;;5028873;28;20040;-76
2022/12/13 06:46:36;;;;;;;11.88;11.38;;;1.50;94.60;;;;;;5027403;28;20036;-76
2022/12/13 06:49:01;;;;;;;10.27;9.77;;;1.50;94.60;;;;;;5028835;28;20492;-76
2022/12/13 06:51:27;;;;;;;12.00;11.50;;;1.50;94.70;;;;;;5027469;28;20117;-76
2022/12/13 06:53:53;;;;;;;9.07;8.68;;;1.40;94.70;;;;;;5027075;28;20026;-76
2022/12/13 06:56:19;;;;;;;9.90;9.40;;;1.40;94.70;;;;;;5027053;28;20031;-76
2022/12/13 06:58:44;;;;;;;11.20;10.70;;;1.30;94.80;;;;;;5026780;28;20453;-76
2022/12/13 07:01:15;;;;;;;10.20;9.70;;;1.30;94.90;;;;;;5010919;28;20088;-76
2022/12/13 07:03:42;;;;;;;9.05;8.65;;;1.30;94.90;;;;;;5028494;28;20386;-76
2022/12/13 07:06:15;;;;;;;10.15;9.65;;;1.30;94.90;;;;;;5028446;28;20056;-77
2022/12/13 07:08:47;;;;;;;10.73;10.23;;;1.30;94.90;;;;;;5029305;28;20057;-77
2022/12/13 07:11:15;;;;;;;12.15;11.65;;;1.20;94.90;;;;;;5027109;28;20030;-76
2022/12/13 07:13:42;;;;;;;11.15;10.65;;;1.10;94.80;;;;;;5026770;28;20079;-77
2022/12/13 07:16:08;;;;;;;12.80;12.20;;;1.10;94.80;;;;;;5028250;28;20037;-76
2022/12/13 07:18:33;;;;;;;14.38;13.77;;;1.00;94.80;;;;;;5028037;28;20029;-76
2022/12/13 07:20:59;;;;;;;14.63;14.02;;;1.00;94.90;;;;;;5028081;28;20070;-76
2022/12/13 07:23:25;;;;;;;14.07;13.48;;;1.00;94.90;;;;;;5028023;28;20021;-76
2022/12/13 07:25:54;;;;;;;13.38;12.77;;;0.90;94.80;;;;;;5028030;28;20385;-75
2022/12/13 07:28:20;;;;;;;14.40;13.80;;;0.90;94.80;;;;;;5026569;28;20156;-76
2022/12/13 07:30:47;;;;;;;16.40;15.70;;;0.90;94.80;;;;;;5026476;28;20029;-77
2022/12/13 07:33:13;;;;;;;16.67;15.98;;;0.80;94.80;;;;;;5026263;28;20036;-76
2022/12/13 07:35:40;;;;;;;14.68;14.07;;;0.80;94.80;;;;;;5026367;28;20037;-76
2022/12/13 07:38:06;;;;;;;;;;;0.80;94.90;;;;;;5009952;28;20390;-76
2022/12/13 07:40:36;;;;;;;15.00;14.40;;;0.80;94.90;;;;;;5027347;28;19912;-76
2022/12/13 07:43:05;;;;;;;15.20;14.60;;;0.80;94.80;;;;;;5027627;28;20425;-77
2022/12/13 07:45:32;;;;;;;16.17;15.48;;;0.80;94.80;;;;;;5027563;28;20108;-76
2022/12/13 07:48:02;;;;;;;15.00;14.40;;;0.80;94.80;;;;;;5027479;28;20041;-77
2022/12/13 07:50:27;;;;;;;14.20;13.60;;;0.80;94.80;;;;;;5027161;28;20047;-76
2022/12/13 07:52:53;;;;;;;17.13;16.42;;;0.90;94.80;;;;;;5025860;28;20033;-76
2022/12/13 07:55:20;;;;;;;16.30;15.60;;;0.80;94.70;;;;;;5009539;28;20030;-76
2022/12/13 07:57:46;;;;;;;17.50;16.80;;;0.80;94.60;;;;;;5025941;28;20076;-75
2022/12/13 08:00:12;;;;;;;16.15;15.45;;;0.80;94.60;;;;;;5026995;28;20033;-76
2022/12/13 08:02:38;;;;;;;;;;;0.80;94.60;;;;;;5027152;28;20065;-75
2022/12/13 08:05:04;;;;;;;14.95;14.35;;;0.70;94.60;;;;;;5026493;28;20315;-76
2022/12/13 08:07:31;;;;;;;18.85;18.05;;;0.70;94.60;;;;;;5025702;28;20065;-76
2022/12/13 08:09:56;;;;;;;;;;;0.70;94.60;;;;;;5026394;28;20474;-76
2022/12/13 08:12:22;;;;;;;18.85;18.05;;;0.80;94.70;;;;;;5027165;28;20004;-75
2022/12/13 08:14:48;;;;;;;17.17;16.48;;;0.80;94.70;;;;;;5029473;28;20030;-75
2022/12/13 08:17:14;;;;;;;17.10;16.40;;;0.80;94.70;;;;;;5030940;28;20041;-76
2022/12/13 08:19:39;;;;;;;15.68;14.98;;;0.90;94.70;;;;;;5031003;28;20071;-78
2022/12/13 08:22:05;;;;;;;17.08;16.38;;;0.90;94.70;;;;;;5029353;28;20144;-77
2022/12/13 08:24:31;;;;;;;17.20;16.50;;;0.90;94.70;;;;;;5030933;28;20038;-76
2022/12/13 08:27:02;;;;;;;19.13;18.33;;;0.90;94.70;;;;;;5029864;28;20083;-77
2022/12/13 08:29:33;;;;;;;18.50;17.70;;;1.00;94.70;;;;;;5029738;28;20079;-77
2022/12/13 08:31:59;;;;;;;17.40;16.70;;;1.00;94.70;;;;;;5030360;28;20029;-77
2022/12/13 08:34:24;;;;;;;16.80;16.10;;;1.10;94.70;;;;;;5030395;28;20049;-77
2022/12/13 08:36:51;;;;;;;16.65;15.95;;;1.10;94.70;;;;;;5030503;28;20116;-80
2022/12/13 08:39:16;;;;;;;;;;;1.20;94.70;;;;;;5030937;28;20030;-77
2022/12/13 08:41:42;;;;;;;18.90;18.10;;;1.20;94.70;;;;;;5028851;28;19936;-77
2022/12/13 08:44:08;;;;;;;16.40;15.70;;;1.20;94.70;;;;;;5028813;28;20261;-76
2022/12/13 08:46:33;;;;;;;18.02;17.33;;;1.30;95.00;;;;;;5028552;28;20486;-77
2022/12/13 08:48:59;;;;;;;18.92;18.13;;;1.30;94.80;;;;;;5029227;28;20037;-76
2022/12/13 08:51:25;;;;;;;17.40;16.70;;;1.40;94.70;;;;;;5029845;28;20036;-74
2022/12/13 08:53:51;;;;;;;19.13;18.33;;;1.40;94.70;;;;;;5011787;28;20041;-76
2022/12/13 08:56:19;;;;;;;15.80;15.10;;;1.40;94.70;;;;;;5028571;28;20402;-76
2022/12/13 08:58:49;;;;;;;17.73;17.02;;;1.40;94.80;;;;;;5029074;28;20115;-76
2022/12/13 09:01:15;;;;;;;16.90;16.20;;;1.40;94.80;;;;;;5012018;28;20091;-74
2022/12/13 09:03:40;;;;;;;19.00;18.20;;;1.50;94.80;;;;;;5028537;28;20018;-76
2022/12/13 09:06:09;;;;;;;17.25;16.55;;;1.50;94.80;;;;;;5028032;28;20490;-76
2022/12/13 09:08:36;;;;;;;16.67;15.98;;;1.50;94.80;;;;;;5029517;28;20200;-76
2022/12/13 09:11:02;;;;;;;18.38;17.58;;;1.50;94.70;;;;;;5030053;28;20037;-76
2022/12/13 09:13:29;;;;;;;;;;;1.50;94.70;;;;;;5047296;28;20029;-75
2022/12/13 09:15:55;;;;;;;17.25;16.55;;;1.50;94.80;;;;;;5039551;28;20044;-76
2022/12/13 09:18:21;;;;;;;16.73;16.02;;;1.50;94.80;;;;;;5037680;28;20103;-76
2022/12/13 09:20:46;;;;;;;18.15;17.45;;;1.50;94.80;;;;;;5040328;28;20145;-76
2022/12/13 09:23:12;;;;;;;18.85;18.05;;;1.50;94.80;;;;;;5039296;28;20445;-76
2022/12/13 09:25:38;;;;;;;18.33;17.55;;;1.50;94.70;;;;;;5038098;28;20060;-76
2022/12/13 09:28:08;;;;;;;19.17;18.38;;;1.50;94.70;;;;;;5038234;28;20437;-77
2022/12/13 09:30:36;;;;;;;18.65;17.85;;;1.50;94.80;;;;;;5038828;28;20381;-76
2022/12/13 09:33:02;;;;;;;18.10;17.40;;;1.50;94.80;;;;;;5039085;28;20056;-77
2022/12/13 09:35:27;;;;;;;17.48;16.77;;;1.50;94.80;;;;;;5040798;28;20065;-76
2022/12/13 09:37:54;;;;;;;19.08;18.27;;;1.50;94.80;;;;;;5022045;28;20389;-76
2022/12/13 09:40:24;;;;;;;20.00;19.20;;;1.60;94.90;;;;;;5038451;28;20025;-76
2022/12/13 09:42:54;;;;;;;17.95;17.25;;;1.60;94.90;;;;;;5037432;28;20563;-76
2022/12/13 09:45:20;;;;;;;17.58;16.88;;;1.60;94.90;;;;;;5037195;28;20049;-77
2022/12/13 09:47:48;;;;;;;18.50;17.70;;;1.60;95.10;;;;;;5038198;28;20397;-77
2022/12/13 09:50:31;;;;;;;19.42;18.63;;;1.60;94.90;;;;;;5038451;28;20041;-76
2022/12/13 09:52:59;;;;;;;18.60;17.80;;;1.60;94.90;;;;;;5038255;28;20026;-77
2022/12/13 09:55:29;;;;;;;18.73;17.92;;;1.70;94.90;;;;;;5020319;28;20024;-78
2022/12/13 09:57:56;;;;;;;16.80;16.10;;;1.70;94.90;;;;;;5036707;28;20040;-78
2022/12/13 10:00:24;;;;;;;14.70;14.10;;;1.80;95.00;;;;;;5035267;28;20389;-76
2022/12/13 10:02:53;;;;;;;14.98;14.38;;;1.80;95.00;;;;;;5037721;28;20025;-78
2022/12/13 10:05:30;;;;;;;14.60;14.00;;;1.90;95.00;;;;;;5039595;28;20596;-78
2022/12/13 10:07:59;;;;;;;16.10;15.40;;;2.00;95.00;;;;;;5035136;28;20116;-77
2022/12/13 10:10:25;;;;;;;15.75;15.05;;;2.10;95.00;;;;;;5039096;28;20064;-77
2022/12/13 10:13:02;;;;;;;;;;;2.20;95.10;;;;;;5035239;28;20029;-77
2022/12/13 10:15:31;;;;;;;16.27;15.57;;;2.20;95.00;;;;;;5048920;28;19911;-78
2022/12/13 10:18:01;;;;;;;16.20;15.50;;;2.20;95.00;;;;;;5045488;28;20068;-78
2022/12/13 10:20:27;;;;;;;15.18;14.55;;;2.30;95.00;;;;;;5050444;28;20053;-78
2022/12/13 10:22:53;;;;;;;14.93;14.32;;;2.30;95.00;;;;;;5042319;28;20370;-79
2022/12/13 10:25:46;;;;;;;13.98;13.38;;;2.40;95.10;;;;;;5046554;28;20118;-78
2022/12/13 10:28:14;;;;;;;12.73;12.13;;;2.40;95.20;;;;;;5036855;28;20064;-77
2022/12/13 10:30:42;;;;;;;12.43;11.82;;;2.60;95.30;;;;;;5050845;28;20488;-78
2022/12/13 10:33:20;;;;;;;10.40;9.90;;;2.70;95.30;;;;;;5027404;28;20625;-78
2022/12/13 10:36:26;;;;;;;6.90;6.50;;;2.90;95.50;;;;;;5048618;28;20090;-79
2022/12/13 10:38:52;;;;;;;8.70;8.30;;;3.30;95.90;;;;;;5045391;28;20453;-79
2022/12/13 10:41:26;;;;;;;9.75;9.25;;;3.40;95.40;;;;;;5043473;28;20075;-79
2022/12/13 10:44:17;;;;;;;10.60;10.10;;;3.40;95.20;;;;;;5038147;28;20017;-78
2022/12/13 10:47:02;;;;;;;11.23;10.73;;;3.40;95.20;;;;;;5040429;28;20047;-78
2022/12/13 10:49:39;;;;;;;9.52;9.02;;;3.40;95.20;;;;;;5041363;28;20022;-78
2022/12/13 10:52:06;;;;;;;;;;;3.40;95.30;;;;;;5041618;28;20029;-77
2022/12/13 10:54:35;;;;;;;9.60;9.10;;;3.50;95.30;;;;;;5046366;28;20366;-77
2022/12/13 10:57:01;;;;;;;5.30;5.00;;;3.60;95.40;;;;;;5046080;28;20028;-79
2022/12/13 10:59:36;;;;;;;3.22;3.03;;;3.80;95.80;;;;;;5028639;28;20029;-78
2022/12/13 11:02:27;;;;;;;1.88;1.77;;;4.70;96.90;;;;;;5028149;28;20044;-79
2022/12/13 11:04:53;;;;;;;2.20;2.00;;;5.70;97.10;;;;;;5042278;28;20441;-78
2022/12/13 11:07:37;;;;;;;2.20;2.00;;;6.30;96.70;;;;;;5046260;28;20124;-71
2022/12/13 11:10:36;;;;;;;2.42;2.22;;;6.70;96.30;;;;;;5029303;28;20033;-78
2022/12/13 11:13:05;;;;;;;1.60;1.50;;;6.60;96.10;;;;;;5021339;28;20103;-77
2022/12/13 11:15:33;;;;;;;2.13;1.98;;;6.40;95.70;;;;;;5028291;28;20434;-77
2022/12/13 11:18:02;;;;;;;1.83;1.73;;;6.10;95.60;;;;;;5032166;28;20025;-77
2022/12/13 11:20:35;;;;;;;2.08;1.92;;;5.80;95.70;;;;;;5050004;28;20037;-77
2022/12/13 11:23:18;;;;;;;2.50;2.30;;;5.50;95.60;;;;;;5042933;28;20035;-76
2022/12/13 11:25:44;;;;;;;2.67;2.47;;;5.30;95.70;;;;;;5036853;28;20057;-78
2022/12/13 11:28:35;;;;;;;3.10;2.90;;;5.10;95.70;;;;;;5029616;28;20037;-76
2022/12/13 11:31:23;;;;;;;2.53;2.33;;;5.00;95.90;;;;;;5029464;28;20068;-77
2022/12/13 11:34:17;;;;;;;3.85;3.55;;;4.90;95.90;;;;;;5032429;28;20049;-78
2022/12/13 11:37:00;;;;;;;3.22;3.03;;;4.80;95.90;;;;;;5034263;28;20390;-78
2022/12/13 11:39:31;;;;;;;3.78;3.47;;;4.80;96.00;;;;;;5047549;28;20029;-74
2022/12/13 11:42:09;;;;;;;3.70;3.40;;;4.80;96.10;;;;;;5034679;28;20018;-78
2022/12/13 11:44:42;;;;;;;4.70;4.40;;;4.90;95.90;;;;;;5044119;28;20097;-77
2022/12/13 11:47:15;;;;;;;4.63;4.32;;;4.90;95.80;;;;;;5039450;28;20150;-77
2022/12/13 11:49:45;;;;;;;4.05;3.75;;;4.90;95.70;;;;;;5039135;28;20444;-76
2022/12/13 11:52:24;;;;;;;5.18;4.88;;;4.90;95.70;;;;;;5036386;28;20029;-75
2022/12/13 11:55:00;;;;;;;5.88;5.57;;;4.90;95.60;;;;;;5039688;28;20025;-77
2022/12/13 11:57:36;;;;;;;5.80;5.50;;;4.80;95.60;;;;;;5044615;28;20025;-76
2022/12/13 12:00:27;;;;;;;5.72;5.43;;;4.80;95.70;;;;;;5039120;28;20762;-73
2022/12/13 12:03:01;;;;;;;4.47;4.18;;;4.80;95.60;;;;;;5043348;28;20482;-75
2022/12/13 12:05:39;;;;;;;5.55;5.25;;;4.80;95.60;;;;;;5036854;28;20032;-77
2022/12/13 12:08:17;;;;;;;5.72;5.43;;;4.70;95.60;;;;;;5041088;28;20055;-77
2022/12/13 12:10:45;;;;;;;4.78;4.47;;;4.80;95.70;;;;;;5041935;28;20032;-76
2022/12/13 12:13:38;;;;;;;6.00;5.70;;;4.80;95.60;;;;;;5040626;28;20029;-76
2022/12/13 12:16:04;;;;;;;4.68;4.38;;;4.90;95.60;;;;;;5042891;28;20044;-73
2022/12/13 12:18:30;;;;;;;5.68;5.38;;;4.80;95.40;;;;;;5039935;28;20029;-74
2022/12/13 12:20:56;;;;;;;6.45;6.05;;;4.80;95.40;;;;;;5032991;28;20343;-76
2022/12/13 12:23:28;;;;;;;6.90;6.50;;;4.70;95.40;;;;;;5037241;28;20032;-74
2022/12/13 12:26:07;;;;;;;7.70;7.30;;;4.70;95.40;;;;;;5039603;28;20239;-73
2022/12/13 12:28:55;;;;;;;7.63;7.22;;;4.80;95.40;;;;;;5043951;28;20031;-75
2022/12/13 12:31:36;;;;;;;8.45;8.05;;;4.70;95.50;;;;;;5047021;28;20029;-72
2022/12/13 12:34:34;;;;;;;6.90;6.50;;;4.80;95.50;;;;;;5047292;28;20524;-74
2022/12/13 12:37:32;;;;;;;8.45;8.05;;;4.80;95.50;;;;;;5047892;28;20039;-74
2022/12/13 12:40:14;;;;;;;8.10;7.70;;;4.90;95.60;;;;;;5045813;28;20452;-74
2022/12/13 12:42:53;;;;;;;6.15;5.85;;;4.90;95.50;;;;;;5046262;28;20025;-75
2022/12/13 12:45:57;;;;;;;5.38;5.07;;;4.90;95.50;;;;;;5048210;28;20021;-77
2022/12/13 12:48:22;;;;;;;5.10;4.80;;;4.90;95.50;;;;;;5040908;28;20053;-77
2022/12/13 12:51:03;;;;;;;5.43;5.13;;;4.80;95.60;;;;;;5048289;28;20369;-75
2022/12/13 12:54:11;;;;;;;5.22;4.93;;;4.80;95.60;;;;;;5047847;28;20098;-75
2022/12/13 12:56:37;;;;;;;6.15;5.85;;;4.90;95.60;;;;;;5037596;28;20134;-74
2022/12/13 12:59:27;;;;;;;7.25;6.85;;;4.90;95.60;;;;;;5048777;28;20056;-74
2022/12/13 13:01:53;;;;;;;4.65;4.35;;;4.90;95.50;;;;;;5049582;28;20508;-75
2022/12/13 13:04:25;;;;;;;4.93;4.63;;;4.90;95.60;;;;;;5051447;28;20064;-75
2022/12/13 13:06:59;;;;;;;5.78;5.47;;;4.90;95.60;;;;;;5051921;28;20029;-78